»·PEaware :: JBU1689 KSAN-KLAS

JBU1689 :: KSAN-KLAS

FLIGHT INFORMATION

Flight Status: Arrived
Operator:
JetBlue Airways
More flights by this operator :: More flights under this callsign
Pilot: Michael C. (31497)
Aircraft: AIRBUS A320
(A320)
More flights by this aircraft type
Origin: KSAN San Diego Intl-Lindbergh
United States
Destination: KLAS McCarran Intl
United States
More flights between these airports :: More routes between these airports
Route: PADRZ2 CHKNN SEBBY YELAH MISEN KEPEC6
File this flight plan on PilotEdge
Remarks: RMK / SIMBRIEF
Altitude:
(Current/Filed)
33,000ft
Speed:
(Current/Filed)
471kts
Departed: 17-Sep-20 09:15 PM
Arrived: 17-Sep-20 10:07 PM
Distance/Time
Traveled:
225nm/0:52
Distance/Time
To Go:
Arrived

Flight Plot

Page will automatically refresh every two minutes.

Flight plan parsing failed; only flown route is shown


Map Options




Map Legend


Flown Route
Filed Route
Departure Airport
Arrival Airport
Navaid (VOR, NDB)
Fix

Horizontal Profiles

Position Reports

Time Latitude Longitude Heading Altitude Ground
Speed
17-Sep-20 20:47 32.734200 -117.203407 267 26ft 0kts
17-Sep-20 20:48 32.734200 -117.203407 267 26ft 0kts
17-Sep-20 20:49 32.734200 -117.203407 267 26ft 0kts
17-Sep-20 20:50 32.734200 -117.203407 267 26ft 0kts
17-Sep-20 20:51 32.734200 -117.203407 267 26ft 0kts
17-Sep-20 20:52 32.734200 -117.203407 267 26ft 0kts
17-Sep-20 20:53 32.734200 -117.203407 267 26ft 0kts
17-Sep-20 20:54 32.734200 -117.203407 267 26ft 0kts
17-Sep-20 20:55 32.734200 -117.203407 267 26ft 0kts
17-Sep-20 20:56 32.734200 -117.203407 267 26ft 0kts
17-Sep-20 20:57 32.734200 -117.203407 267 26ft 0kts
17-Sep-20 20:58 32.734200 -117.203407 267 26ft 0kts
17-Sep-20 20:59 32.734200 -117.203407 267 26ft 0kts
17-Sep-20 21:00 32.734200 -117.203407 267 26ft 0kts
17-Sep-20 21:01 32.734200 -117.203406 267 26ft 0kts
17-Sep-20 21:02 32.733907 -117.203026 1 26ft 2kts
17-Sep-20 21:03 32.733823 -117.203038 9 26ft 0kts
17-Sep-20 21:04 32.733823 -117.203038 9 26ft 0kts
17-Sep-20 21:05 32.735444 -117.201913 81 26ft 13kts
17-Sep-20 21:06 32.734193 -117.196542 106 26ft 19kts
17-Sep-20 21:07 32.732593 -117.189917 106 26ft 22kts
17-Sep-20 21:08 32.730941 -117.183103 105 26ft 22kts
17-Sep-20 21:09 32.729596 -117.177501 93 26ft 3kts
17-Sep-20 21:10 32.729608 -117.176441 71 26ft 8kts
17-Sep-20 21:11 32.730387 -117.176595 283 26ft 0kts
17-Sep-20 21:12 32.730387 -117.176595 283 26ft 0kts
17-Sep-20 21:13 32.730387 -117.176595 283 26ft 0kts
17-Sep-20 21:14 32.739468 -117.212507 288 1029ft 198kts
17-Sep-20 21:15 32.774249 -117.277555 305 4033ft 261kts
17-Sep-20 21:16 32.819377 -117.349880 306 7682ft 284kts
17-Sep-20 21:17 32.869602 -117.427083 306 10722ft 320kts
17-Sep-20 21:18 32.929639 -117.520121 307 12670ft 366kts
17-Sep-20 21:19 32.991517 -117.616688 307 13100ft 366kts
17-Sep-20 21:20 33.077474 -117.669988 12 15386ft 374kts
17-Sep-20 21:21 33.172187 -117.616506 27 17932ft 382kts
17-Sep-20 21:22 33.268592 -117.557554 27 19979ft 398kts
17-Sep-20 21:23 33.369285 -117.495691 26 21670ft 415kts
17-Sep-20 21:24 33.473548 -117.431453 26 23329ft 430kts
17-Sep-20 21:25 33.581205 -117.364935 26 24814ft 444kts
17-Sep-20 21:26 33.691730 -117.296384 26 26257ft 455kts
17-Sep-20 21:27 33.806089 -117.225311 25 27627ft 465kts
17-Sep-20 21:28 33.922299 -117.152857 25 28875ft 474kts
17-Sep-20 21:29 34.039777 -117.079380 25 29960ft 483kts
17-Sep-20 21:30 34.159548 -117.004228 24 31235ft 484kts
17-Sep-20 21:31 34.278306 -116.929482 24 32535ft 483kts
17-Sep-20 21:32 34.397504 -116.854204 24 33179ft 480kts
17-Sep-20 21:34 34.516237 -116.778980 24 33054ft 482kts
17-Sep-20 21:35 34.635226 -116.703345 24 33056ft 482kts
17-Sep-20 21:36 34.753707 -116.627796 24 33059ft 481kts
17-Sep-20 21:37 34.871490 -116.552441 24 31969ft 475kts
17-Sep-20 21:38 34.984398 -116.479987 25 29149ft 439kts
17-Sep-20 21:39 35.089181 -116.412561 25 26298ft 417kts
17-Sep-20 21:40 35.189578 -116.347509 26 23814ft 399kts
17-Sep-20 21:41 35.284812 -116.286625 26 20766ft 375kts
17-Sep-20 21:42 35.373490 -116.230016 26 18290ft 345kts
17-Sep-20 21:43 35.456749 -116.176744 27 16551ft 337kts
17-Sep-20 21:44 35.539975 -116.123366 27 14693ft 333kts
17-Sep-20 21:45 35.620719 -116.071477 28 13213ft 322kts
17-Sep-20 21:46 35.700446 -116.020143 28 13147ft 312kts
17-Sep-20 21:47 35.776997 -115.970778 28 13145ft 310kts
17-Sep-20 21:48 35.852816 -115.919001 44 13146ft 309kts
17-Sep-20 21:49 35.888930 -115.825177 71 13146ft 304kts
17-Sep-20 21:50 35.919217 -115.727400 70 13146ft 304kts
17-Sep-20 21:50 35.944935 -115.646386 69 13146ft 304kts
17-Sep-20 21:51 35.976006 -115.548783 69 13144ft 304kts
17-Sep-20 21:53 36.011485 -115.437185 70 11114ft 294kts
17-Sep-20 21:53 36.030099 -115.359590 96 10827ft 280kts
17-Sep-20 21:54 36.023104 -115.264531 98 9311ft 275kts
17-Sep-20 21:55 36.016352 -115.170877 98 9010ft 275kts
17-Sep-20 21:56 36.010320 -115.080916 98 8043ft 250kts
17-Sep-20 21:57 36.005169 -114.994844 97 7767ft 249kts
17-Sep-20 21:58 36.000159 -114.910828 97 6401ft 249kts
17-Sep-20 21:59 36.013257 -114.832444 27 5064ft 234kts
17-Sep-20 22:00 36.060392 -114.861004 301 5039ft 189kts
17-Sep-20 22:01 36.074120 -114.920297 266 5042ft 174kts
17-Sep-20 22:02 36.073835 -114.979510 266 4405ft 169kts
17-Sep-20 22:03 36.073771 -115.037545 266 3471ft 170kts
17-Sep-20 22:04 36.073700 -115.094636 269 2585ft 154kts
17-Sep-20 22:05 36.073637 -115.142565 276 2094ft 48kts
17-Sep-20 22:06 36.075480 -115.146540 350 2105ft 1kts
17-Sep-20 22:07 36.077477 -115.146630 336 2104ft 7kts
17-Sep-20 22:08 36.079282 -115.149583 342 2109ft 10kts
17-Sep-20 22:09 36.082275 -115.150569 338 2107ft 2kts
17-Sep-20 22:10 36.082349 -115.150606 338 2107ft 0kts
17-Sep-20 22:11 36.082349 -115.150605 338 2107ft 0kts
17-Sep-20 22:12 36.082349 -115.150605 338 2107ft 0kts
17-Sep-20 22:13 36.082349 -115.150605 338 2107ft 0kts
17-Sep-20 22:14 36.082349 -115.150605 338 2107ft 0kts
17-Sep-20 22:15 36.082349 -115.150605 338 2107ft 0kts
17-Sep-20 22:16 36.082349 -115.150605 338 2107ft 0kts
17-Sep-20 22:17 36.082349 -115.150605 338 2107ft 0kts
17-Sep-20 22:18 36.082349 -115.150605 338 2107ft 0kts
17-Sep-20 22:19 36.082349 -115.150605 338 2107ft 0kts
17-Sep-20 22:20 36.082349 -115.150605 338 2107ft 0kts

Navigation Log

Ident Type
Flight plan parsing failed, navigation log unavailable